Startpagina
METAR-TAF:

METAR-TAF

Vliegvelden :

Nörvenich, Duitsland

breedte: 50-50N, lengte: 006-40E, hoogte: 118 m

Actueel weer

Dit bericht is 45 minuten geleden gemaakt, om 10:20 UTC
Wind 8 kt uit het oostzuidoosten
Temperatuur 22°C
Vochtigheid 46%
Druk 1022 hPa
Zicht 10 km of meer
Weinig wolken op 4500 ft

METAR: ETNN 261020Z 11008KT 9999 FEW045 22/10 Q1022 BLU+

Tijdstip: 13:05 (11:05 UTC)

Verwachting

Dit bericht is 45 minuten geleden gemaakt, om 10:20 UTC
Verwachting geldig van 26 om 11 UTC tot 26 om 20 UTC
Wind 5 kt uit het oosten
Zicht 10 km of meer
Weinig wolken op 4500 ft

TAF: ETNN 261020Z 2611/2620 10005KT 9999 NSW FEW045 BY ETGL

Waarnemingen en weersverwachtingen van meer dan 4000 vliegvelden (METAR en TAF).

De beschikbare stations zijn de gele en rode punten op de kaart.

Ga met uw muis naar het station om de naam te zien.

Klik dan om waarnemingen en weersverwachtingen te zien.

kaart wijzigen: klik op de groene knoppen met een zwart kruis om in te zoomen, op de groene knop met een streepje om uit te zoomen of op de groene pijlen voor aangrenzende kaarten.


METAR-TAF: